sensor_id;sensor_type;location;lat;lon;timestamp;temperature;humidity
23544;DHT22;11950;51.230;4.012;2022-12-10T00:01:23;2.00;99.90
23544;DHT22;11950;51.230;4.012;2022-12-10T00:03:50;2.00;99.90
23544;DHT22;11950;51.230;4.012;2022-12-10T00:06:19;2.00;99.90
23544;DHT22;11950;51.230;4.012;2022-12-10T00:08:46;1.90;99.90
23544;DHT22;11950;51.230;4.012;2022-12-10T00:11:15;1.90;99.90
23544;DHT22;11950;51.230;4.012;2022-12-10T00:13:42;1.90;99.90
23544;DHT22;11950;51.230;4.012;2022-12-10T00:16:10;1.90;99.90
23544;DHT22;11950;51.230;4.012;2022-12-10T00:18:38;1.90;99.90
23544;DHT22;11950;51.230;4.012;2022-12-10T00:21:10;2.00;99.90
23544;DHT22;11950;51.230;4.012;2022-12-10T00:23:37;1.90;99.90
23544;DHT22;11950;51.230;4.012;2022-12-10T00:28:49;1.90;99.90
23544;DHT22;11950;51.230;4.012;2022-12-10T00:31:21;1.90;99.90
23544;DHT22;11950;51.230;4.012;2022-12-10T00:33:48;1.90;99.90
23544;DHT22;11950;51.230;4.012;2022-12-10T00:36:21;1.90;99.90
23544;DHT22;11950;51.230;4.012;2022-12-10T00:38:48;1.80;99.90
23544;DHT22;11950;51.230;4.012;2022-12-10T00:41:15;1.90;99.90
23544;DHT22;11950;51.230;4.012;2022-12-10T00:43:42;1.80;99.90
23544;DHT22;11950;51.230;4.012;2022-12-10T00:46:11;1.70;99.90
23544;DHT22;11950;51.230;4.012;2022-12-10T00:48:41;1.80;99.90
23544;DHT22;11950;51.230;4.012;2022-12-10T00:51:11;1.80;99.90
23544;DHT22;11950;51.230;4.012;2022-12-10T00:53:39;1.80;99.90
23544;DHT22;11950;51.230;4.012;2022-12-10T00:56:07;1.80;99.90
23544;DHT22;11950;51.230;4.012;2022-12-10T00:58:35;1.80;99.90
23544;DHT22;11950;51.230;4.012;2022-12-10T01:03:48;1.90;99.90
23544;DHT22;11950;51.230;4.012;2022-12-10T01:08:44;1.90;99.90
23544;DHT22;11950;51.230;4.012;2022-12-10T01:11:12;1.90;99.90
23544;DHT22;11950;51.230;4.012;2022-12-10T01:13:40;1.90;99.90
23544;DHT22;11950;51.230;4.012;2022-12-10T01:16:08;2.00;99.90
23544;DHT22;11950;51.230;4.012;2022-12-10T01:18:36;2.00;99.90
23544;DHT22;11950;51.230;4.012;2022-12-10T01:21:09;2.00;99.90
23544;DHT22;11950;51.230;4.012;2022-12-10T01:23:39;2.10;99.90
23544;DHT22;11950;51.230;4.012;2022-12-10T01:26:08;2.00;99.90
23544;DHT22;11950;51.230;4.012;2022-12-10T01:28:37;2.00;99.90
23544;DHT22;11950;51.230;4.012;2022-12-10T01:31:13;2.00;99.90
23544;DHT22;11950;51.230;4.012;2022-12-10T01:33:40;2.10;99.90
23544;DHT22;11950;51.230;4.012;2022-12-10T01:36:08;2.00;99.90
23544;DHT22;11950;51.230;4.012;2022-12-10T01:38:36;2.00;99.90
23544;DHT22;11950;51.230;4.012;2022-12-10T01:41:05;2.00;99.90
23544;DHT22;11950;51.230;4.012;2022-12-10T01:46:35;2.00;99.90
23544;DHT22;11950;51.230;4.012;2022-12-10T01:49:11;2.10;99.90
23544;DHT22;11950;51.230;4.012;2022-12-10T01:51:40;2.10;99.90
23544;DHT22;11950;51.230;4.012;2022-12-10T01:54:13;2.10;99.90
23544;DHT22;11950;51.230;4.012;2022-12-10T01:56:42;2.10;99.90
23544;DHT22;11950;51.230;4.012;2022-12-10T01:59:10;2.10;99.90
23544;DHT22;11950;51.230;4.012;2022-12-10T02:04:37;2.10;99.90
23544;DHT22;11950;51.230;4.012;2022-12-10T02:10:00;2.10;99.90
23544;DHT22;11950;51.230;4.012;2022-12-10T02:17:37;2.20;99.90
23544;DHT22;11950;51.230;4.012;2022-12-10T02:20:07;2.20;99.90
23544;DHT22;11950;51.230;4.012;2022-12-10T02:23:02;2.20;99.90
23544;DHT22;11950;51.230;4.012;2022-12-10T02:31:11;2.20;99.90
23544;DHT22;11950;51.230;4.012;2022-12-10T02:33:45;2.20;99.90
23544;DHT22;11950;51.230;4.012;2022-12-10T02:36:14;2.20;99.90
23544;DHT22;11950;51.230;4.012;2022-12-10T02:38:41;2.30;99.90
23544;DHT22;11950;51.230;4.012;2022-12-10T02:41:15;2.30;99.90
23544;DHT22;11950;51.230;4.012;2022-12-10T02:43:48;2.30;99.90
23544;DHT22;11950;51.230;4.012;2022-12-10T02:46:15;2.30;99.90
23544;DHT22;11950;51.230;4.012;2022-12-10T02:48:43;2.30;99.90
23544;DHT22;11950;51.230;4.012;2022-12-10T02:51:10;2.80;99.90
23544;DHT22;11950;51.230;4.012;2022-12-10T02:53:45;2.20;99.90
23544;DHT22;11950;51.230;4.012;2022-12-10T02:56:23;2.20;99.90
23544;DHT22;11950;51.230;4.012;2022-12-10T03:07:04;2.30;99.90
23544;DHT22;11950;51.230;4.012;2022-12-10T03:09:47;2.30;99.90
23544;DHT22;11950;51.230;4.012;2022-12-10T03:12:39;2.30;99.90
23544;DHT22;11950;51.230;4.012;2022-12-10T03:15:09;2.20;99.90
23544;DHT22;11950;51.230;4.012;2022-12-10T03:17:38;2.20;99.90
23544;DHT22;11950;51.230;4.012;2022-12-10T03:20:08;2.20;99.90
23544;DHT22;11950;51.230;4.012;2022-12-10T03:22:38;2.30;99.90
23544;DHT22;11950;51.230;4.012;2022-12-10T03:25:07;2.20;99.90
23544;DHT22;11950;51.230;4.012;2022-12-10T03:27:37;2.30;99.90
23544;DHT22;11950;51.230;4.012;2022-12-10T03:30:05;2.30;99.90
23544;DHT22;11950;51.230;4.012;2022-12-10T03:32:31;2.30;99.90
23544;DHT22;11950;51.230;4.012;2022-12-10T03:35:00;2.30;99.90
23544;DHT22;11950;51.230;4.012;2022-12-10T03:37:27;2.20;99.90
23544;DHT22;11950;51.230;4.012;2022-12-10T03:39:56;2.10;99.90
23544;DHT22;11950;51.230;4.012;2022-12-10T03:42:23;2.10;99.90
23544;DHT22;11950;51.230;4.012;2022-12-10T03:44:50;2.10;99.90
23544;DHT22;11950;51.230;4.012;2022-12-10T03:47:18;2.10;99.90
23544;DHT22;11950;51.230;4.012;2022-12-10T03:49:45;2.10;99.90
23544;DHT22;11950;51.230;4.012;2022-12-10T03:52:12;2.10;99.90
23544;DHT22;11950;51.230;4.012;2022-12-10T03:54:38;2.10;99.90
23544;DHT22;11950;51.230;4.012;2022-12-10T03:57:04;2.10;99.90
23544;DHT22;11950;51.230;4.012;2022-12-10T03:59:31;2.10;99.90
23544;DHT22;11950;51.230;4.012;2022-12-10T04:01:57;2.20;99.90
23544;DHT22;11950;51.230;4.012;2022-12-10T04:04:24;2.20;99.90
23544;DHT22;11950;51.230;4.012;2022-12-10T04:06:50;2.10;99.90
23544;DHT22;11950;51.230;4.012;2022-12-10T04:09:17;2.10;99.90
23544;DHT22;11950;51.230;4.012;2022-12-10T04:11:44;2.10;99.90
23544;DHT22;11950;51.230;4.012;2022-12-10T04:14:11;2.10;99.90
23544;DHT22;11950;51.230;4.012;2022-12-10T04:16:56;2.20;99.90
23544;DHT22;11950;51.230;4.012;2022-12-10T04:19:23;2.20;99.90
23544;DHT22;11950;51.230;4.012;2022-12-10T04:21:49;2.20;99.90
23544;DHT22;11950;51.230;4.012;2022-12-10T04:24:35;2.20;99.90
23544;DHT22;11950;51.230;4.012;2022-12-10T04:27:26;2.20;99.90
23544;DHT22;11950;51.230;4.012;2022-12-10T04:29:54;2.20;99.90
23544;DHT22;11950;51.230;4.012;2022-12-10T04:32:22;2.10;99.90
23544;DHT22;11950;51.230;4.012;2022-12-10T04:34:48;2.20;99.90
23544;DHT22;11950;51.230;4.012;2022-12-10T04:37:15;2.20;99.90
23544;DHT22;11950;51.230;4.012;2022-12-10T04:39:42;2.20;99.90
23544;DHT22;11950;51.230;4.012;2022-12-10T04:42:08;2.40;99.90
23544;DHT22;11950;51.230;4.012;2022-12-10T04:44:35;2.20;99.90
23544;DHT22;11950;51.230;4.012;2022-12-10T04:47:04;2.20;99.90
23544;DHT22;11950;51.230;4.012;2022-12-10T04:49:30;2.30;99.90
23544;DHT22;11950;51.230;4.012;2022-12-10T04:51:58;2.20;99.90
23544;DHT22;11950;51.230;4.012;2022-12-10T04:54:25;2.30;99.90
23544;DHT22;11950;51.230;4.012;2022-12-10T04:56:53;2.30;99.90
23544;DHT22;11950;51.230;4.012;2022-12-10T04:59:19;2.30;99.90
23544;DHT22;11950;51.230;4.012;2022-12-10T05:01:46;2.30;99.90
23544;DHT22;11950;51.230;4.012;2022-12-10T05:04:14;2.30;99.90
23544;DHT22;11950;51.230;4.012;2022-12-10T05:06:42;2.30;99.90
23544;DHT22;11950;51.230;4.012;2022-12-10T05:09:11;2.30;99.90
23544;DHT22;11950;51.230;4.012;2022-12-10T05:11:37;3.00;99.90
23544;DHT22;11950;51.230;4.012;2022-12-10T05:14:04;2.30;99.90
23544;DHT22;11950;51.230;4.012;2022-12-10T05:16:32;2.30;99.90
23544;DHT22;11950;51.230;4.012;2022-12-10T05:18:59;2.30;99.90
23544;DHT22;11950;51.230;4.012;2022-12-10T05:21:28;2.30;99.90
23544;DHT22;11950;51.230;4.012;2022-12-10T05:24:16;2.30;99.90
23544;DHT22;11950;51.230;4.012;2022-12-10T05:26:42;2.30;99.90
23544;DHT22;11950;51.230;4.012;2022-12-10T05:29:09;2.30;99.90
23544;DHT22;11950;51.230;4.012;2022-12-10T05:31:35;2.30;99.90
23544;DHT22;11950;51.230;4.012;2022-12-10T05:34:02;2.30;99.90
23544;DHT22;11950;51.230;4.012;2022-12-10T05:36:30;2.30;99.90
23544;DHT22;11950;51.230;4.012;2022-12-10T05:38:58;2.30;99.90
23544;DHT22;11950;51.230;4.012;2022-12-10T05:41:30;2.30;99.90
23544;DHT22;11950;51.230;4.012;2022-12-10T05:43:57;2.30;99.90
23544;DHT22;11950;51.230;4.012;2022-12-10T05:46:26;2.30;99.90
23544;DHT22;11950;51.230;4.012;2022-12-10T05:48:53;2.30;99.90
23544;DHT22;11950;51.230;4.012;2022-12-10T05:51:22;2.30;99.90
23544;DHT22;11950;51.230;4.012;2022-12-10T05:53:49;2.30;99.90
23544;DHT22;11950;51.230;4.012;2022-12-10T05:56:18;2.30;99.90
23544;DHT22;11950;51.230;4.012;2022-12-10T05:58:46;2.40;99.90
23544;DHT22;11950;51.230;4.012;2022-12-10T06:01:16;2.40;99.90
23544;DHT22;11950;51.230;4.012;2022-12-10T06:03:43;2.30;99.90
23544;DHT22;11950;51.230;4.012;2022-12-10T06:06:10;2.30;99.90
23544;DHT22;11950;51.230;4.012;2022-12-10T06:08:38;2.30;99.90
23544;DHT22;11950;51.230;4.012;2022-12-10T06:11:09;2.30;99.90
23544;DHT22;11950;51.230;4.012;2022-12-10T06:13:37;2.30;99.90
23544;DHT22;11950;51.230;4.012;2022-12-10T06:16:11;2.30;99.90
23544;DHT22;11950;51.230;4.012;2022-12-10T06:18:37;2.30;99.90
23544;DHT22;11950;51.230;4.012;2022-12-10T06:21:05;2.30;99.90
23544;DHT22;11950;51.230;4.012;2022-12-10T06:23:31;2.30;99.90
23544;DHT22;11950;51.230;4.012;2022-12-10T06:25:57;2.40;99.90
23544;DHT22;11950;51.230;4.012;2022-12-10T06:28:24;2.40;99.90
23544;DHT22;11950;51.230;4.012;2022-12-10T06:30:50;2.30;99.90
23544;DHT22;11950;51.230;4.012;2022-12-10T06:33:17;2.40;99.90
23544;DHT22;11950;51.230;4.012;2022-12-10T06:35:43;2.40;99.90
23544;DHT22;11950;51.230;4.012;2022-12-10T06:38:09;2.40;99.90
23544;DHT22;11950;51.230;4.012;2022-12-10T06:40:39;2.40;99.90
23544;DHT22;11950;51.230;4.012;2022-12-10T06:43:06;2.40;99.90
23544;DHT22;11950;51.230;4.012;2022-12-10T06:45:32;2.40;99.90
23544;DHT22;11950;51.230;4.012;2022-12-10T06:47:58;2.50;99.90
23544;DHT22;11950;51.230;4.012;2022-12-10T06:50:24;2.40;99.90
23544;DHT22;11950;51.230;4.012;2022-12-10T06:52:51;2.40;99.90
23544;DHT22;11950;51.230;4.012;2022-12-10T06:55:17;2.40;99.90
23544;DHT22;11950;51.230;4.012;2022-12-10T06:57:43;2.40;99.90
23544;DHT22;11950;51.230;4.012;2022-12-10T07:00:10;2.40;99.90
23544;DHT22;11950;51.230;4.012;2022-12-10T07:02:36;2.40;99.90
23544;DHT22;11950;51.230;4.012;2022-12-10T07:05:03;2.40;99.90
23544;DHT22;11950;51.230;4.012;2022-12-10T07:07:30;2.40;99.90
23544;DHT22;11950;51.230;4.012;2022-12-10T07:09:56;2.40;99.90
23544;DHT22;11950;51.230;4.012;2022-12-10T07:12:22;2.40;99.90
23544;DHT22;11950;51.230;4.012;2022-12-10T07:14:48;2.40;99.90
23544;DHT22;11950;51.230;4.012;2022-12-10T07:17:15;2.60;99.90
23544;DHT22;11950;51.230;4.012;2022-12-10T07:19:41;2.50;99.90
23544;DHT22;11950;51.230;4.012;2022-12-10T07:22:07;2.50;99.90
23544;DHT22;11950;51.230;4.012;2022-12-10T07:24:34;2.50;99.90
23544;DHT22;11950;51.230;4.012;2022-12-10T07:27:00;2.70;99.90
23544;DHT22;11950;51.230;4.012;2022-12-10T07:29:28;2.40;99.90
23544;DHT22;11950;51.230;4.012;2022-12-10T07:31:54;2.40;99.90
23544;DHT22;11950;51.230;4.012;2022-12-10T07:34:21;2.50;99.90
23544;DHT22;11950;51.230;4.012;2022-12-10T07:36:47;2.40;99.90
23544;DHT22;11950;51.230;4.012;2022-12-10T07:39:14;2.50;99.90
23544;DHT22;11950;51.230;4.012;2022-12-10T07:41:48;2.50;99.90
23544;DHT22;11950;51.230;4.012;2022-12-10T07:44:16;2.60;99.90
23544;DHT22;11950;51.230;4.012;2022-12-10T07:46:44;2.60;99.90
23544;DHT22;11950;51.230;4.012;2022-12-10T07:49:10;2.60;99.90
23544;DHT22;11950;51.230;4.012;2022-12-10T07:51:37;2.60;99.90
23544;DHT22;11950;51.230;4.012;2022-12-10T07:54:03;2.50;99.90
23544;DHT22;11950;51.230;4.012;2022-12-10T07:56:30;2.60;99.90
23544;DHT22;11950;51.230;4.012;2022-12-10T07:58:56;2.50;99.90
23544;DHT22;11950;51.230;4.012;2022-12-10T08:01:24;2.50;99.90
23544;DHT22;11950;51.230;4.012;2022-12-10T08:03:52;2.60;99.90
23544;DHT22;11950;51.230;4.012;2022-12-10T08:06:20;3.50;99.90
23544;DHT22;11950;51.230;4.012;2022-12-10T08:08:47;2.50;99.90
23544;DHT22;11950;51.230;4.012;2022-12-10T08:11:15;2.60;99.90
23544;DHT22;11950;51.230;4.012;2022-12-10T08:13:42;2.50;99.90
23544;DHT22;11950;51.230;4.012;2022-12-10T08:16:17;2.60;99.90
23544;DHT22;11950;51.230;4.012;2022-12-10T08:18:44;2.60;99.90
23544;DHT22;11950;51.230;4.012;2022-12-10T08:21:16;2.50;99.90
23544;DHT22;11950;51.230;4.012;2022-12-10T08:23:43;2.60;99.90
23544;DHT22;11950;51.230;4.012;2022-12-10T08:26:18;2.60;99.90
23544;DHT22;11950;51.230;4.012;2022-12-10T08:28:47;2.60;99.90
23544;DHT22;11950;51.230;4.012;2022-12-10T08:31:16;2.70;99.90
23544;DHT22;11950;51.230;4.012;2022-12-10T08:33:42;2.90;99.90
23544;DHT22;11950;51.230;4.012;2022-12-10T08:36:13;2.80;99.90
23544;DHT22;11950;51.230;4.012;2022-12-10T08:38:40;2.70;99.90
23544;DHT22;11950;51.230;4.012;2022-12-10T08:41:13;2.80;99.90
23544;DHT22;11950;51.230;4.012;2022-12-10T08:43:40;2.70;99.90
23544;DHT22;11950;51.230;4.012;2022-12-10T08:46:07;2.70;99.90
23544;DHT22;11950;51.230;4.012;2022-12-10T08:48:34;2.70;99.90
23544;DHT22;11950;51.230;4.012;2022-12-10T08:51:02;2.70;99.90
23544;DHT22;11950;51.230;4.012;2022-12-10T08:53:28;2.70;99.90
23544;DHT22;11950;51.230;4.012;2022-12-10T08:55:55;2.80;99.90
23544;DHT22;11950;51.230;4.012;2022-12-10T08:58:21;2.80;99.90
23544;DHT22;11950;51.230;4.012;2022-12-10T09:00:49;2.90;99.90
23544;DHT22;11950;51.230;4.012;2022-12-10T09:03:15;2.90;99.90
23544;DHT22;11950;51.230;4.012;2022-12-10T09:05:42;2.90;99.90
23544;DHT22;11950;51.230;4.012;2022-12-10T09:08:09;2.90;99.90
23544;DHT22;11950;51.230;4.012;2022-12-10T09:10:36;3.00;99.90
23544;DHT22;11950;51.230;4.012;2022-12-10T09:13:03;3.00;99.90
23544;DHT22;11950;51.230;4.012;2022-12-10T09:15:30;3.00;99.90
23544;DHT22;11950;51.230;4.012;2022-12-10T09:17:56;3.00;99.90
23544;DHT22;11950;51.230;4.012;2022-12-10T09:20:23;3.10;99.90
23544;DHT22;11950;51.230;4.012;2022-12-10T09:22:49;3.10;99.90
23544;DHT22;11950;51.230;4.012;2022-12-10T09:25:16;3.10;99.90
23544;DHT22;11950;51.230;4.012;2022-12-10T09:27:43;3.10;99.90
23544;DHT22;11950;51.230;4.012;2022-12-10T09:30:10;3.10;99.90
23544;DHT22;11950;51.230;4.012;2022-12-10T09:32:37;3.20;99.90
23544;DHT22;11950;51.230;4.012;2022-12-10T09:35:04;3.20;99.90
23544;DHT22;11950;51.230;4.012;2022-12-10T09:37:30;3.10;99.90
23544;DHT22;11950;51.230;4.012;2022-12-10T09:39:56;3.10;99.90
23544;DHT22;11950;51.230;4.012;2022-12-10T09:42:54;3.20;99.90
23544;DHT22;11950;51.230;4.012;2022-12-10T09:45:49;3.30;99.90
23544;DHT22;11950;51.230;4.012;2022-12-10T09:53:29;3.30;99.90
23544;DHT22;11950;51.230;4.012;2022-12-10T09:55:57;3.30;99.90
23544;DHT22;11950;51.230;4.012;2022-12-10T09:58:26;3.30;99.90
23544;DHT22;11950;51.230;4.012;2022-12-10T10:03:23;3.40;99.90
23544;DHT22;11950;51.230;4.012;2022-12-10T10:05:52;3.40;99.90
23544;DHT22;11950;51.230;4.012;2022-12-10T10:08:35;3.40;99.90
23544;DHT22;11950;51.230;4.012;2022-12-10T10:11:03;3.50;99.90
23544;DHT22;11950;51.230;4.012;2022-12-10T10:13:38;3.50;99.90
23544;DHT22;11950;51.230;4.012;2022-12-10T10:16:18;3.50;99.90
23544;DHT22;11950;51.230;4.012;2022-12-10T10:19:09;3.50;99.90
23544;DHT22;11950;51.230;4.012;2022-12-10T10:21:42;3.50;99.90
23544;DHT22;11950;51.230;4.012;2022-12-10T10:24:20;3.50;99.90
23544;DHT22;11950;51.230;4.012;2022-12-10T10:26:48;3.50;99.90
23544;DHT22;11950;51.230;4.012;2022-12-10T10:29:18;3.60;99.90
23544;DHT22;11950;51.230;4.012;2022-12-10T10:31:46;3.60;99.90
23544;DHT22;11950;51.230;4.012;2022-12-10T10:34:21;3.60;99.90
23544;DHT22;11950;51.230;4.012;2022-12-10T10:36:55;3.60;99.90
23544;DHT22;11950;51.230;4.012;2022-12-10T10:39:28;3.70;99.90
23544;DHT22;11950;51.230;4.012;2022-12-10T10:41:56;3.60;99.90
23544;DHT22;11950;51.230;4.012;2022-12-10T10:44:26;3.70;99.90
23544;DHT22;11950;51.230;4.012;2022-12-10T10:46:55;3.70;99.90
23544;DHT22;11950;51.230;4.012;2022-12-10T10:51:52;3.70;99.90
23544;DHT22;11950;51.230;4.012;2022-12-10T10:54:40;3.80;99.90
23544;DHT22;11950;51.230;4.012;2022-12-10T10:57:29;3.80;99.90
23544;DHT22;11950;51.230;4.012;2022-12-10T11:00:21;3.80;99.90
23544;DHT22;11950;51.230;4.012;2022-12-10T11:02:49;3.80;99.90
23544;DHT22;11950;51.230;4.012;2022-12-10T11:05:26;3.80;99.90
23544;DHT22;11950;51.230;4.012;2022-12-10T11:08:12;3.90;99.90
23544;DHT22;11950;51.230;4.012;2022-12-10T11:10:50;4.00;99.90
23544;DHT22;11950;51.230;4.012;2022-12-10T11:13:25;4.00;99.90
23544;DHT22;11950;51.230;4.012;2022-12-10T11:18:53;4.00;99.90
23544;DHT22;11950;51.230;4.012;2022-12-10T11:21:21;4.00;99.90
23544;DHT22;11950;51.230;4.012;2022-12-10T11:23:52;4.00;99.90
23544;DHT22;11950;51.230;4.012;2022-12-10T11:26:34;4.00;99.90
23544;DHT22;11950;51.230;4.012;2022-12-10T11:50:56;4.20;99.90
23544;DHT22;11950;51.230;4.012;2022-12-10T11:53:40;4.20;99.90
23544;DHT22;11950;51.230;4.012;2022-12-10T11:59:08;4.30;99.90
23544;DHT22;11950;51.230;4.012;2022-12-10T12:02:08;4.40;99.90
23544;DHT22;11950;51.230;4.012;2022-12-10T12:10:24;4.50;99.90
23544;DHT22;11950;51.230;4.012;2022-12-10T12:13:02;4.50;99.90
23544;DHT22;11950;51.230;4.012;2022-12-10T12:15:39;4.60;99.90
23544;DHT22;11950;51.230;4.012;2022-12-10T12:18:23;4.60;99.90
23544;DHT22;11950;51.230;4.012;2022-12-10T12:20:55;4.50;99.90
23544;DHT22;11950;51.230;4.012;2022-12-10T12:23:44;4.50;99.90
23544;DHT22;11950;51.230;4.012;2022-12-10T12:31:58;4.70;99.90
23544;DHT22;11950;51.230;4.012;2022-12-10T12:37:12;4.80;99.90
23544;DHT22;11950;51.230;4.012;2022-12-10T12:42:35;4.90;99.90
23544;DHT22;11950;51.230;4.012;2022-12-10T12:45:16;4.80;99.90
23544;DHT22;11950;51.230;4.012;2022-12-10T12:48:09;4.80;99.90
23544;DHT22;11950;51.230;4.012;2022-12-10T12:53:17;5.00;99.90
23544;DHT22;11950;51.230;4.012;2022-12-10T12:56:09;5.00;99.90
23544;DHT22;11950;51.230;4.012;2022-12-10T12:59:14;4.90;99.90
23544;DHT22;11950;51.230;4.012;2022-12-10T13:01:53;4.90;99.90
23544;DHT22;11950;51.230;4.012;2022-12-10T13:04:22;4.90;99.90
23544;DHT22;11950;51.230;4.012;2022-12-10T13:07:09;4.90;99.90
23544;DHT22;11950;51.230;4.012;2022-12-10T13:12:24;4.90;99.90
23544;DHT22;11950;51.230;4.012;2022-12-10T13:18:24;4.90;99.90
23544;DHT22;11950;51.230;4.012;2022-12-10T13:23:33;4.90;99.90
23544;DHT22;11950;51.230;4.012;2022-12-10T13:26:00;4.90;99.90
23544;DHT22;11950;51.230;4.012;2022-12-10T13:32:04;4.90;99.90
23544;DHT22;11950;51.230;4.012;2022-12-10T13:34:39;4.90;99.90
23544;DHT22;11950;51.230;4.012;2022-12-10T13:37:31;5.00;99.90
23544;DHT22;11950;51.230;4.012;2022-12-10T13:40:14;5.00;99.90
23544;DHT22;11950;51.230;4.012;2022-12-10T13:42:56;4.90;99.90
23544;DHT22;11950;51.230;4.012;2022-12-10T13:45:42;4.90;99.90
23544;DHT22;11950;51.230;4.012;2022-12-10T14:01:19;5.00;99.90
23544;DHT22;11950;51.230;4.012;2022-12-10T14:06:44;5.10;99.90
23544;DHT22;11950;51.230;4.012;2022-12-10T14:09:27;5.10;99.90
23544;DHT22;11950;51.230;4.012;2022-12-10T14:11:59;5.10;99.90
23544;DHT22;11950;51.230;4.012;2022-12-10T14:17:05;5.10;99.90
23544;DHT22;11950;51.230;4.012;2022-12-10T14:19:33;5.10;99.90
23544;DHT22;11950;51.230;4.012;2022-12-10T14:22:07;5.10;99.90
23544;DHT22;11950;51.230;4.012;2022-12-10T14:24:36;5.10;99.90
23544;DHT22;11950;51.230;4.012;2022-12-10T14:27:17;5.10;99.90
23544;DHT22;11950;51.230;4.012;2022-12-10T14:29:48;5.00;99.90
23544;DHT22;11950;51.230;4.012;2022-12-10T14:32:19;5.00;99.90
23544;DHT22;11950;51.230;4.012;2022-12-10T14:34:52;5.10;99.90
23544;DHT22;11950;51.230;4.012;2022-12-10T14:37:23;5.10;99.90
23544;DHT22;11950;51.230;4.012;2022-12-10T14:39:51;5.10;99.90
23544;DHT22;11950;51.230;4.012;2022-12-10T14:42:17;5.10;99.90
23544;DHT22;11950;51.230;4.012;2022-12-10T14:44:45;5.10;99.90
23544;DHT22;11950;51.230;4.012;2022-12-10T14:47:18;5.10;99.90
23544;DHT22;11950;51.230;4.012;2022-12-10T14:49:50;5.00;99.90
23544;DHT22;11950;51.230;4.012;2022-12-10T14:52:30;5.00;99.90
23544;DHT22;11950;51.230;4.012;2022-12-10T14:54:58;5.00;99.90
23544;DHT22;11950;51.230;4.012;2022-12-10T14:58:10;5.00;99.90
23544;DHT22;11950;51.230;4.012;2022-12-10T15:00:19;5.00;99.90
23544;DHT22;11950;51.230;4.012;2022-12-10T15:03:07;5.00;99.90
23544;DHT22;11950;51.230;4.012;2022-12-10T15:05:35;5.00;99.90
23544;DHT22;11950;51.230;4.012;2022-12-10T15:08:04;5.00;99.90
23544;DHT22;11950;51.230;4.012;2022-12-10T15:10:38;5.00;99.90
23544;DHT22;11950;51.230;4.012;2022-12-10T15:13:06;4.90;99.90
23544;DHT22;11950;51.230;4.012;2022-12-10T15:15:38;4.90;99.90
23544;DHT22;11950;51.230;4.012;2022-12-10T15:18:11;4.90;99.90
23544;DHT22;11950;51.230;4.012;2022-12-10T15:20:52;4.80;99.90
23544;DHT22;11950;51.230;4.012;2022-12-10T15:28:34;4.70;99.90
23544;DHT22;11950;51.230;4.012;2022-12-10T15:33:54;4.70;99.90
23544;DHT22;11950;51.230;4.012;2022-12-10T15:36:39;4.80;99.90
23544;DHT22;11950;51.230;4.012;2022-12-10T15:39:13;4.70;99.90
23544;DHT22;11950;51.230;4.012;2022-12-10T15:41:45;4.70;99.90
23544;DHT22;11950;51.230;4.012;2022-12-10T15:47:17;4.60;99.90
23544;DHT22;11950;51.230;4.012;2022-12-10T15:49:45;4.60;99.90
23544;DHT22;11950;51.230;4.012;2022-12-10T15:52:23;4.60;99.90
23544;DHT22;11950;51.230;4.012;2022-12-10T15:54:52;4.60;99.90
23544;DHT22;11950;51.230;4.012;2022-12-10T15:57:24;4.50;99.90
23544;DHT22;11950;51.230;4.012;2022-12-10T15:59:56;4.50;99.90
23544;DHT22;11950;51.230;4.012;2022-12-10T16:05:29;4.40;99.90
23544;DHT22;11950;51.230;4.012;2022-12-10T16:08:00;4.40;99.90
23544;DHT22;11950;51.230;4.012;2022-12-10T16:10:28;4.40;99.90
23544;DHT22;11950;51.230;4.012;2022-12-10T16:13:03;4.40;99.90
23544;DHT22;11950;51.230;4.012;2022-12-10T16:15:33;4.40;99.90
23544;DHT22;11950;51.230;4.012;2022-12-10T16:18:04;4.40;99.90
23544;DHT22;11950;51.230;4.012;2022-12-10T16:20:32;4.50;99.90
23544;DHT22;11950;51.230;4.012;2022-12-10T16:22:58;4.50;99.90
23544;DHT22;11950;51.230;4.012;2022-12-10T16:25:28;4.50;99.90
23544;DHT22;11950;51.230;4.012;2022-12-10T16:27:55;4.50;99.90
23544;DHT22;11950;51.230;4.012;2022-12-10T16:30:36;4.50;99.90
23544;DHT22;11950;51.230;4.012;2022-12-10T16:33:03;4.50;99.90
23544;DHT22;11950;51.230;4.012;2022-12-10T16:35:30;4.50;99.90
23544;DHT22;11950;51.230;4.012;2022-12-10T16:37:56;4.50;99.90
23544;DHT22;11950;51.230;4.012;2022-12-10T16:40:27;4.40;99.90
23544;DHT22;11950;51.230;4.012;2022-12-10T16:42:54;4.40;99.90
23544;DHT22;11950;51.230;4.012;2022-12-10T16:45:25;4.40;99.90
23544;DHT22;11950;51.230;4.012;2022-12-10T16:47:52;4.40;99.90
23544;DHT22;11950;51.230;4.012;2022-12-10T16:50:20;4.40;99.90
23544;DHT22;11950;51.230;4.012;2022-12-10T16:52:47;4.40;99.90
23544;DHT22;11950;51.230;4.012;2022-12-10T16:55:16;4.40;99.90
23544;DHT22;11950;51.230;4.012;2022-12-10T16:57:45;4.40;99.90
23544;DHT22;11950;51.230;4.012;2022-12-10T17:00:13;4.40;99.90
23544;DHT22;11950;51.230;4.012;2022-12-10T17:02:41;4.50;99.90
23544;DHT22;11950;51.230;4.012;2022-12-10T17:05:24;4.50;99.90
23544;DHT22;11950;51.230;4.012;2022-12-10T17:07:53;4.50;99.90
23544;DHT22;11950;51.230;4.012;2022-12-10T17:10:19;4.50;99.90
23544;DHT22;11950;51.230;4.012;2022-12-10T17:13:10;4.50;99.90
23544;DHT22;11950;51.230;4.012;2022-12-10T17:15:38;4.60;99.90
23544;DHT22;11950;51.230;4.012;2022-12-10T17:18:04;4.50;99.90
23544;DHT22;11950;51.230;4.012;2022-12-10T17:20:31;4.50;99.90
23544;DHT22;11950;51.230;4.012;2022-12-10T17:22:58;4.40;99.90
23544;DHT22;11950;51.230;4.012;2022-12-10T17:25:24;4.40;99.90
23544;DHT22;11950;51.230;4.012;2022-12-10T17:27:50;4.30;99.90
23544;DHT22;11950;51.230;4.012;2022-12-10T17:30:17;4.30;99.90
23544;DHT22;11950;51.230;4.012;2022-12-10T17:32:43;5.20;99.90
23544;DHT22;11950;51.230;4.012;2022-12-10T17:35:09;4.20;99.90
23544;DHT22;11950;51.230;4.012;2022-12-10T17:37:36;4.10;99.90
23544;DHT22;11950;51.230;4.012;2022-12-10T17:40:14;4.20;99.90
23544;DHT22;11950;51.230;4.012;2022-12-10T17:42:41;4.20;99.90
23544;DHT22;11950;51.230;4.012;2022-12-10T17:45:09;4.20;99.90
23544;DHT22;11950;51.230;4.012;2022-12-10T17:47:37;4.20;99.90
23544;DHT22;11950;51.230;4.012;2022-12-10T17:50:03;4.20;99.90
23544;DHT22;11950;51.230;4.012;2022-12-10T17:52:40;4.20;99.90
23544;DHT22;11950;51.230;4.012;2022-12-10T17:55:06;4.20;99.90
23544;DHT22;11950;51.230;4.012;2022-12-10T17:57:32;4.30;99.90
23544;DHT22;11950;51.230;4.012;2022-12-10T17:59:58;4.30;99.90
23544;DHT22;11950;51.230;4.012;2022-12-10T18:02:25;4.30;99.90
23544;DHT22;11950;51.230;4.012;2022-12-10T18:04:52;4.30;99.90
23544;DHT22;11950;51.230;4.012;2022-12-10T18:07:19;4.30;99.90
23544;DHT22;11950;51.230;4.012;2022-12-10T18:09:46;4.40;99.90
23544;DHT22;11950;51.230;4.012;2022-12-10T18:12:12;4.40;99.90
23544;DHT22;11950;51.230;4.012;2022-12-10T18:14:39;4.40;99.90
23544;DHT22;11950;51.230;4.012;2022-12-10T18:17:13;4.40;99.90
23544;DHT22;11950;51.230;4.012;2022-12-10T18:19:39;4.40;99.90
23544;DHT22;11950;51.230;4.012;2022-12-10T18:22:06;4.40;99.90
23544;DHT22;11950;51.230;4.012;2022-12-10T18:24:32;4.50;99.90